sensor_id;sensor_type;location;lat;lon;timestamp;pressure;altitude;pressure_sealevel;temperature;humidity
8697;BME280;4385;48.848;8.924;2023-01-15T00:00:03;96157.00;;;17.94;100.00
8697;BME280;4385;48.848;8.924;2023-01-15T00:02:30;96159.63;;;17.93;100.00
8697;BME280;4385;48.848;8.924;2023-01-15T00:04:55;96167.34;;;17.91;100.00
8697;BME280;4385;48.848;8.924;2023-01-15T00:07:21;96164.84;;;17.90;100.00
8697;BME280;4385;48.848;8.924;2023-01-15T00:09:46;96146.28;;;17.88;100.00
8697;BME280;4385;48.848;8.924;2023-01-15T00:12:11;96146.28;;;17.88;100.00
8697;BME280;4385;48.848;8.924;2023-01-15T00:14:37;96142.09;;;17.85;100.00
8697;BME280;4385;48.848;8.924;2023-01-15T00:17:02;96131.97;;;17.83;100.00
8697;BME280;4385;48.848;8.924;2023-01-15T00:19:27;96137.97;;;17.82;100.00
8697;BME280;4385;48.848;8.924;2023-01-15T00:21:52;96134.66;;;17.80;100.00
8697;BME280;4385;48.848;8.924;2023-01-15T00:24:18;96122.81;;;17.79;100.00
8697;BME280;4385;48.848;8.924;2023-01-15T00:27:01;96128.81;;;17.78;100.00
8697;BME280;4385;48.848;8.924;2023-01-15T00:29:45;96115.28;;;17.76;100.00
8697;BME280;4385;48.848;8.924;2023-01-15T00:32:11;96115.38;;;17.75;100.00
8697;BME280;4385;48.848;8.924;2023-01-15T00:34:36;96108.56;;;17.75;100.00
8697;BME280;4385;48.848;8.924;2023-01-15T00:37:02;96095.03;;;17.73;100.00
8697;BME280;4385;48.848;8.924;2023-01-15T00:39:27;96101.03;;;17.72;100.00
8697;BME280;4385;48.848;8.924;2023-01-15T00:41:53;96090.00;;;17.72;100.00
8697;BME280;4385;48.848;8.924;2023-01-15T00:44:19;96097.72;;;17.70;100.00
8697;BME280;4385;48.848;8.924;2023-01-15T00:46:44;96099.50;;;17.68;100.00
8697;BME280;4385;48.848;8.924;2023-01-15T00:49:10;96093.66;;;17.66;100.00
8697;BME280;4385;48.848;8.924;2023-01-15T00:51:35;96086.00;;;17.66;100.00
8697;BME280;4385;48.848;8.924;2023-01-15T00:54:01;96080.97;;;17.64;100.00
8697;BME280;4385;48.848;8.924;2023-01-15T00:56:26;96069.19;;;17.62;100.00
8697;BME280;4385;48.848;8.924;2023-01-15T00:58:52;96067.53;;;17.61;100.00
8697;BME280;4385;48.848;8.924;2023-01-15T01:01:18;96059.06;;;17.60;100.00
8697;BME280;4385;48.848;8.924;2023-01-15T01:03:43;96065.88;;;17.60;100.00
8697;BME280;4385;48.848;8.924;2023-01-15T01:06:13;96068.56;;;17.56;100.00
8697;BME280;4385;48.848;8.924;2023-01-15T01:08:39;96073.66;;;17.56;100.00
8697;BME280;4385;48.848;8.924;2023-01-15T01:11:08;96066.00;;;17.56;100.00
8697;BME280;4385;48.848;8.924;2023-01-15T01:13:36;96058.44;;;17.55;100.00
8697;BME280;4385;48.848;8.924;2023-01-15T01:16:03;96055.94;;;17.53;100.00
8697;BME280;4385;48.848;8.924;2023-01-15T01:18:29;96063.59;;;17.53;100.00
8697;BME280;4385;48.848;8.924;2023-01-15T01:20:54;96061.03;;;17.53;100.00
8697;BME280;4385;48.848;8.924;2023-01-15T01:23:22;96055.94;;;17.53;100.00
8697;BME280;4385;48.848;8.924;2023-01-15T01:25:48;96066.13;;;17.53;100.00
8697;BME280;4385;48.848;8.924;2023-01-15T01:28:13;96055.13;;;17.53;100.00
8697;BME280;4385;48.848;8.924;2023-01-15T01:30:38;96054.28;;;17.52;100.00
8697;BME280;4385;48.848;8.924;2023-01-15T01:33:04;96064.47;;;17.52;100.00
8697;BME280;4385;48.848;8.924;2023-01-15T01:35:29;96052.63;;;17.51;100.00
8697;BME280;4385;48.848;8.924;2023-01-15T01:37:55;96045.88;;;17.50;100.00
8697;BME280;4385;48.848;8.924;2023-01-15T01:40:20;96044.22;;;17.49;100.00
8697;BME280;4385;48.848;8.924;2023-01-15T01:42:45;96045.06;;;17.50;100.00
8697;BME280;4385;48.848;8.924;2023-01-15T01:45:15;96047.66;;;17.48;100.00
8697;BME280;4385;48.848;8.924;2023-01-15T01:47:42;96051.09;;;17.47;100.00
8697;BME280;4385;48.848;8.924;2023-01-15T01:50:10;96042.69;;;17.45;100.00
8697;BME280;4385;48.848;8.924;2023-01-15T01:52:40;96044.41;;;17.44;100.00
8697;BME280;4385;48.848;8.924;2023-01-15T01:55:09;96030.09;;;17.42;100.00
8697;BME280;4385;48.848;8.924;2023-01-15T01:57:36;96020.81;;;17.41;100.00
8697;BME280;4385;48.848;8.924;2023-01-15T02:00:03;96030.16;;;17.40;100.00
8697;BME280;4385;48.848;8.924;2023-01-15T02:02:31;96026.03;;;17.38;100.00
8697;BME280;4385;48.848;8.924;2023-01-15T02:04:56;96026.03;;;17.38;100.00
8697;BME280;4385;48.848;8.924;2023-01-15T02:07:22;96022.66;;;17.37;100.00
8697;BME280;4385;48.848;8.924;2023-01-15T02:09:48;96020.09;;;17.37;100.00
8697;BME280;4385;48.848;8.924;2023-01-15T02:12:22;96025.19;;;17.37;100.00
8697;BME280;4385;48.848;8.924;2023-01-15T02:15:06;96008.25;;;17.36;100.00
8697;BME280;4385;48.848;8.924;2023-01-15T02:17:44;96012.53;;;17.36;100.00
8697;BME280;4385;48.848;8.924;2023-01-15T02:20:23;96012.53;;;17.36;100.00
8697;BME280;4385;48.848;8.924;2023-01-15T02:23:14;96015.97;;;17.35;100.00
8697;BME280;4385;48.848;8.924;2023-01-15T02:26:18;96008.34;;;17.35;100.00
8697;BME280;4385;48.848;8.924;2023-01-15T02:28:50;96004.94;;;17.34;100.00
8697;BME280;4385;48.848;8.924;2023-01-15T02:31:38;95999.00;;;17.33;100.00
8697;BME280;4385;48.848;8.924;2023-01-15T02:36:36;96007.63;;;17.31;100.00
8697;BME280;4385;48.848;8.924;2023-01-15T02:39:06;96016.91;;;17.32;100.00
8697;BME280;4385;48.848;8.924;2023-01-15T02:41:36;96002.72;;;17.26;100.00
8697;BME280;4385;48.848;8.924;2023-01-15T02:44:04;96002.59;;;17.29;100.00
8697;BME280;4385;48.848;8.924;2023-01-15T02:46:33;95993.25;;;17.30;100.00
8697;BME280;4385;48.848;8.924;2023-01-15T02:49:00;95992.41;;;17.29;100.00
8697;BME280;4385;48.848;8.924;2023-01-15T02:51:36;95995.84;;;17.28;100.00
8697;BME280;4385;48.848;8.924;2023-01-15T02:54:05;95991.75;;;17.24;100.00
8697;BME280;4385;48.848;8.924;2023-01-15T02:56:35;95996.66;;;17.29;100.00
8697;BME280;4385;48.848;8.924;2023-01-15T02:59:05;95996.72;;;17.27;100.00
8697;BME280;4385;48.848;8.924;2023-01-15T03:01:36;95992.53;;;17.26;100.00
8697;BME280;4385;48.848;8.924;2023-01-15T03:04:12;95990.88;;;17.25;100.00
8697;BME280;4385;48.848;8.924;2023-01-15T03:06:42;95983.25;;;17.25;100.00
8697;BME280;4385;48.848;8.924;2023-01-15T03:09:11;95986.66;;;17.24;100.00
8697;BME280;4385;48.848;8.924;2023-01-15T03:11:45;95991.00;;;17.22;100.00
8697;BME280;4385;48.848;8.924;2023-01-15T03:14:20;95987.50;;;17.25;100.00
8697;BME280;4385;48.848;8.924;2023-01-15T03:16:58;95985.03;;;17.23;100.00
8697;BME280;4385;48.848;8.924;2023-01-15T03:19:38;95977.31;;;17.25;100.00
8697;BME280;4385;48.848;8.924;2023-01-15T03:22:23;95977.38;;;17.23;100.00
8697;BME280;4385;48.848;8.924;2023-01-15T03:24:56;95979.94;;;17.23;100.00
8697;BME280;4385;48.848;8.924;2023-01-15T03:27:24;95963.75;;;17.24;100.00
8697;BME280;4385;48.848;8.924;2023-01-15T03:29:54;95964.59;;;17.25;100.00
8697;BME280;4385;48.848;8.924;2023-01-15T03:32:20;95963.75;;;17.24;100.00
8697;BME280;4385;48.848;8.924;2023-01-15T03:34:52;95968.03;;;17.24;100.00
8697;BME280;4385;48.848;8.924;2023-01-15T03:37:19;95962.13;;;17.23;100.00
8697;BME280;4385;48.848;8.924;2023-01-15T03:39:46;95951.94;;;17.23;100.00
8697;BME280;4385;48.848;8.924;2023-01-15T03:45:23;95975.75;;;17.22;100.00
8697;BME280;4385;48.848;8.924;2023-01-15T03:48:04;95973.19;;;17.22;100.00
8697;BME280;4385;48.848;8.924;2023-01-15T03:50:43;95967.31;;;17.20;100.00
8697;BME280;4385;48.848;8.924;2023-01-15T03:53:39;95963.94;;;17.19;100.00
8697;BME280;4385;48.848;8.924;2023-01-15T03:56:21;95966.56;;;17.18;100.00
8697;BME280;4385;48.848;8.924;2023-01-15T03:59:02;95965.81;;;17.16;100.00
8697;BME280;4385;48.848;8.924;2023-01-15T04:01:36;95953.09;;;17.16;100.00
8697;BME280;4385;48.848;8.924;2023-01-15T04:04:03;95948.88;;;17.15;100.00
8697;BME280;4385;48.848;8.924;2023-01-15T04:06:31;95953.97;;;17.15;100.00
8697;BME280;4385;48.848;8.924;2023-01-15T04:08:58;95959.94;;;17.14;100.00
8697;BME280;4385;48.848;8.924;2023-01-15T04:11:25;95945.56;;;17.13;100.00
8697;BME280;4385;48.848;8.924;2023-01-15T04:13:51;95951.47;;;17.13;100.00
8697;BME280;4385;48.848;8.924;2023-01-15T04:16:28;95946.38;;;17.13;100.00
8697;BME280;4385;48.848;8.924;2023-01-15T04:18:54;95937.94;;;17.13;100.00
8697;BME280;4385;48.848;8.924;2023-01-15T04:21:19;95954.09;;;17.12;100.00
8697;BME280;4385;48.848;8.924;2023-01-15T04:23:44;95952.44;;;17.11;100.00
8697;BME280;4385;48.848;8.924;2023-01-15T04:26:10;95937.16;;;17.11;100.00
8697;BME280;4385;48.848;8.924;2023-01-15T04:28:37;95949.91;;;17.11;100.00
8697;BME280;4385;48.848;8.924;2023-01-15T04:31:02;95949.84;;;17.12;100.00
8697;BME280;4385;48.848;8.924;2023-01-15T04:33:27;95938.06;;;17.10;100.00
8697;BME280;4385;48.848;8.924;2023-01-15T04:35:53;95937.28;;;17.07;100.00
8697;BME280;4385;48.848;8.924;2023-01-15T04:38:18;95927.13;;;17.07;100.00
8697;BME280;4385;48.848;8.924;2023-01-15T04:40:43;95938.94;;;17.08;100.00
8697;BME280;4385;48.848;8.924;2023-01-15T04:43:28;95943.16;;;17.10;100.00
8697;BME280;4385;48.848;8.924;2023-01-15T04:46:12;95945.69;;;17.10;100.00
8697;BME280;4385;48.848;8.924;2023-01-15T04:48:38;95937.28;;;17.07;100.00
8697;BME280;4385;48.848;8.924;2023-01-15T04:51:05;95954.31;;;17.05;100.00
8697;BME280;4385;48.848;8.924;2023-01-15T04:53:31;95969.56;;;17.05;100.00
8697;BME280;4385;48.848;8.924;2023-01-15T04:56:04;95992.47;;;17.05;100.00
8697;BME280;4385;48.848;8.924;2023-01-15T04:58:29;95999.31;;;17.05;100.00
8697;BME280;4385;48.848;8.924;2023-01-15T05:00:55;96034.09;;;17.04;100.00
8697;BME280;4385;48.848;8.924;2023-01-15T05:03:21;96024.75;;;17.05;100.00
8697;BME280;4385;48.848;8.924;2023-01-15T05:05:46;96018.81;;;17.04;100.00
8697;BME280;4385;48.848;8.924;2023-01-15T05:08:11;96027.34;;;17.03;100.00
8697;BME280;4385;48.848;8.924;2023-01-15T05:10:37;96022.22;;;17.05;100.00
8697;BME280;4385;48.848;8.924;2023-01-15T05:13:02;96035.13;;;17.00;100.00
8697;BME280;4385;48.848;8.924;2023-01-15T05:15:27;96032.56;;;17.00;100.00
8697;BME280;4385;48.848;8.924;2023-01-15T05:17:52;96036.94;;;16.97;100.00
8697;BME280;4385;48.848;8.924;2023-01-15T05:20:18;96046.03;;;17.02;100.00
8697;BME280;4385;48.848;8.924;2023-01-15T05:22:43;96052.81;;;17.03;100.00
8697;BME280;4385;48.848;8.924;2023-01-15T05:25:08;96068.94;;;17.02;100.00
8697;BME280;4385;48.848;8.924;2023-01-15T05:27:34;96070.63;;;17.03;100.00
8697;BME280;4385;48.848;8.924;2023-01-15T05:29:59;96081.66;;;17.02;100.00
8697;BME280;4385;48.848;8.924;2023-01-15T05:32:24;96078.31;;;17.02;100.00
8697;BME280;4385;48.848;8.924;2023-01-15T05:34:49;96084.25;;;17.01;100.00
8697;BME280;4385;48.848;8.924;2023-01-15T05:37:15;96079.19;;;17.01;100.00
8697;BME280;4385;48.848;8.924;2023-01-15T05:39:40;96087.72;;;17.00;100.00
8697;BME280;4385;48.848;8.924;2023-01-15T05:42:05;96092.84;;;16.98;100.00
8697;BME280;4385;48.848;8.924;2023-01-15T05:44:32;96091.28;;;16.95;100.00
8697;BME280;4385;48.848;8.924;2023-01-15T05:46:59;96092.19;;;16.93;100.00
8697;BME280;4385;48.848;8.924;2023-01-15T05:49:27;96093.88;;;16.94;100.00
8697;BME280;4385;48.848;8.924;2023-01-15T05:51:54;96099.81;;;16.93;100.00
8697;BME280;4385;48.848;8.924;2023-01-15T05:54:24;96107.56;;;16.90;100.00
8697;BME280;4385;48.848;8.924;2023-01-15T05:56:50;96097.41;;;16.90;100.00
8697;BME280;4385;48.848;8.924;2023-01-15T05:59:18;96094.09;;;16.88;100.00
8697;BME280;4385;48.848;8.924;2023-01-15T06:01:44;96110.19;;;16.88;100.00
8697;BME280;4385;48.848;8.924;2023-01-15T06:04:10;96107.69;;;16.87;100.00
8697;BME280;4385;48.848;8.924;2023-01-15T06:06:38;96105.22;;;16.85;100.00
8697;BME280;4385;48.848;8.924;2023-01-15T06:09:03;96115.38;;;16.85;100.00
8697;BME280;4385;48.848;8.924;2023-01-15T06:11:29;96117.94;;;16.85;100.00
8697;BME280;4385;48.848;8.924;2023-01-15T06:13:54;96115.38;;;16.85;100.00
8697;BME280;4385;48.848;8.924;2023-01-15T06:16:19;96118.81;;;16.84;100.00
8697;BME280;4385;48.848;8.924;2023-01-15T06:18:45;96117.97;;;16.83;100.00
8697;BME280;4385;48.848;8.924;2023-01-15T06:21:11;96120.53;;;16.83;100.00
8697;BME280;4385;48.848;8.924;2023-01-15T06:23:38;96124.88;;;16.81;100.00
8697;BME280;4385;48.848;8.924;2023-01-15T06:26:10;96132.56;;;16.80;100.00
8697;BME280;4385;48.848;8.924;2023-01-15T06:28:36;96137.66;;;16.80;100.00
8697;BME280;4385;48.848;8.924;2023-01-15T06:31:09;96152.06;;;16.79;100.00
8697;BME280;4385;48.848;8.924;2023-01-15T06:33:36;96176.66;;;16.79;100.00
8697;BME280;4385;48.848;8.924;2023-01-15T06:36:06;96173.38;;;16.77;100.00
8697;BME280;4385;48.848;8.924;2023-01-15T06:38:33;96178.41;;;16.78;100.00
8697;BME280;4385;48.848;8.924;2023-01-15T06:41:00;96179.94;;;16.82;100.00
8697;BME280;4385;48.848;8.924;2023-01-15T06:43:25;96180.72;;;16.85;100.00
8697;BME280;4385;48.848;8.924;2023-01-15T06:46:09;96195.88;;;16.88;100.00
8697;BME280;4385;48.848;8.924;2023-01-15T06:48:53;96206.75;;;16.91;100.00
8697;BME280;4385;48.848;8.924;2023-01-15T06:51:19;96203.28;;;16.94;100.00
8697;BME280;4385;48.848;8.924;2023-01-15T06:53:45;96198.84;;;16.99;100.00
8697;BME280;4385;48.848;8.924;2023-01-15T06:56:14;96213.19;;;17.02;100.00
8697;BME280;4385;48.848;8.924;2023-01-15T06:58:42;96225.75;;;17.06;100.00
8697;BME280;4385;48.848;8.924;2023-01-15T07:01:10;96243.47;;;17.10;100.00
8697;BME280;4385;48.848;8.924;2023-01-15T07:03:35;96239.13;;;17.12;100.00
8697;BME280;4385;48.848;8.924;2023-01-15T07:06:07;96242.41;;;17.15;100.00
8697;BME280;4385;48.848;8.924;2023-01-15T07:08:33;96252.53;;;17.17;100.00
8697;BME280;4385;48.848;8.924;2023-01-15T07:11:03;96245.69;;;17.19;100.00
8697;BME280;4385;48.848;8.924;2023-01-15T07:13:29;96237.16;;;17.20;100.00
8697;BME280;4385;48.848;8.924;2023-01-15T07:15:57;96226.06;;;17.21;100.00
8697;BME280;4385;48.848;8.924;2023-01-15T07:18:22;96237.03;;;17.23;100.00
8697;BME280;4385;48.848;8.924;2023-01-15T07:20:48;96225.19;;;17.22;100.00
8697;BME280;4385;48.848;8.924;2023-01-15T07:23:13;96221.69;;;17.25;100.00
8697;BME280;4385;48.848;8.924;2023-01-15T07:25:39;96239.53;;;17.25;100.00
8697;BME280;4385;48.848;8.924;2023-01-15T07:28:04;96256.50;;;17.24;100.00
8697;BME280;4385;48.848;8.924;2023-01-15T07:30:29;96257.41;;;17.23;100.00
8697;BME280;4385;48.848;8.924;2023-01-15T07:32:55;96247.34;;;17.20;100.00
8697;BME280;4385;48.848;8.924;2023-01-15T07:35:21;96263.44;;;17.20;100.00
8697;BME280;4385;48.848;8.924;2023-01-15T07:37:50;96266.78;;;17.21;100.00
8697;BME280;4385;48.848;8.924;2023-01-15T07:40:16;96263.38;;;17.22;100.00
8697;BME280;4385;48.848;8.924;2023-01-15T07:42:42;96245.56;;;17.22;100.00
8697;BME280;4385;48.848;8.924;2023-01-15T07:45:26;96264.13;;;17.24;100.00
8697;BME280;4385;48.848;8.924;2023-01-15T07:48:29;96264.09;;;17.26;100.00
8697;BME280;4385;48.848;8.924;2023-01-15T07:51:13;96283.53;;;17.28;100.00
8697;BME280;4385;48.848;8.924;2023-01-15T07:53:38;96294.47;;;17.30;100.00
8697;BME280;4385;48.848;8.924;2023-01-15T07:56:04;96296.03;;;17.35;100.00
8697;BME280;4385;48.848;8.924;2023-01-15T07:58:29;96302.78;;;17.36;100.00
8697;BME280;4385;48.848;8.924;2023-01-15T08:00:54;96317.94;;;17.39;100.00
8697;BME280;4385;48.848;8.924;2023-01-15T08:03:20;96308.53;;;17.41;100.00
8697;BME280;4385;48.848;8.924;2023-01-15T08:05:45;96317.81;;;17.42;100.00
8697;BME280;4385;48.848;8.924;2023-01-15T08:08:19;96331.34;;;17.44;100.00
8697;BME280;4385;48.848;8.924;2023-01-15T08:10:44;96338.09;;;17.45;100.00
8697;BME280;4385;48.848;8.924;2023-01-15T08:13:28;96322.81;;;17.45;100.00
8697;BME280;4385;48.848;8.924;2023-01-15T08:16:12;96340.59;;;17.47;100.00
8697;BME280;4385;48.848;8.924;2023-01-15T08:18:38;96326.19;;;17.45;100.00
8697;BME280;4385;48.848;8.924;2023-01-15T08:21:04;96338.94;;;17.45;100.00
8697;BME280;4385;48.848;8.924;2023-01-15T08:23:29;96331.34;;;17.44;100.00
8697;BME280;4385;48.848;8.924;2023-01-15T08:25:58;96328.81;;;17.44;100.00
8697;BME280;4385;48.848;8.924;2023-01-15T08:28:24;96339.84;;;17.43;100.00
8697;BME280;4385;48.848;8.924;2023-01-15T08:30:50;96358.63;;;17.40;100.00
8697;BME280;4385;48.848;8.924;2023-01-15T08:33:15;96369.72;;;17.39;100.00
8697;BME280;4385;48.848;8.924;2023-01-15T08:35:40;96373.06;;;17.40;100.00
8697;BME280;4385;48.848;8.924;2023-01-15T08:38:06;96370.53;;;17.40;100.00
8697;BME280;4385;48.848;8.924;2023-01-15T08:40:32;96372.25;;;17.39;100.00
8697;BME280;4385;48.848;8.924;2023-01-15T08:42:57;96365.44;;;17.40;100.00
8697;BME280;4385;48.848;8.924;2023-01-15T08:45:23;96382.38;;;17.41;100.00
8697;BME280;4385;48.848;8.924;2023-01-15T08:47:48;96384.03;;;17.42;100.00
8697;BME280;4385;48.848;8.924;2023-01-15T08:50:13;96384.03;;;17.42;100.00
8697;BME280;4385;48.848;8.924;2023-01-15T08:52:39;96390.78;;;17.43;100.00
8697;BME280;4385;48.848;8.924;2023-01-15T08:55:05;96404.31;;;17.45;100.00
8697;BME280;4385;48.848;8.924;2023-01-15T08:57:30;96405.09;;;17.47;100.00
8697;BME280;4385;48.848;8.924;2023-01-15T08:59:55;96398.25;;;17.48;100.00
8697;BME280;4385;48.848;8.924;2023-01-15T09:02:21;96397.44;;;17.47;100.00
8697;BME280;4385;48.848;8.924;2023-01-15T09:04:46;96411.78;;;17.50;100.00
8697;BME280;4385;48.848;8.924;2023-01-15T09:07:11;96411.72;;;17.51;100.00
8697;BME280;4385;48.848;8.924;2023-01-15T09:09:37;96418.41;;;17.54;100.00
8697;BME280;4385;48.848;8.924;2023-01-15T09:12:03;96417.50;;;17.56;100.00
8697;BME280;4385;48.848;8.924;2023-01-15T09:14:28;96418.25;;;17.58;100.00
8697;BME280;4385;48.848;8.924;2023-01-15T09:16:53;96424.13;;;17.61;100.00
8697;BME280;4385;48.848;8.924;2023-01-15T09:19:19;96429.16;;;17.62;100.00
8697;BME280;4385;48.848;8.924;2023-01-15T09:21:45;96433.31;;;17.65;100.00
8697;BME280;4385;48.848;8.924;2023-01-15T09:24:10;96448.59;;;17.65;100.00
8697;BME280;4385;48.848;8.924;2023-01-15T09:26:37;96468.13;;;17.66;100.00
8697;BME280;4385;48.848;8.924;2023-01-15T09:29:04;96485.09;;;17.65;100.00
8697;BME280;4385;48.848;8.924;2023-01-15T09:31:30;96482.56;;;17.65;100.00
8697;BME280;4385;48.848;8.924;2023-01-15T09:33:56;96480.06;;;17.64;100.00
8697;BME280;4385;48.848;8.924;2023-01-15T09:36:30;96472.38;;;17.65;100.00
8697;BME280;4385;48.848;8.924;2023-01-15T09:38:58;96477.41;;;17.67;100.00
8697;BME280;4385;48.848;8.924;2023-01-15T09:41:25;96473.22;;;17.66;100.00
8697;BME280;4385;48.848;8.924;2023-01-15T09:44:33;96476.53;;;17.68;100.00
8697;BME280;4385;48.848;8.924;2023-01-15T09:50:15;96489.03;;;17.74;100.00
8697;BME280;4385;48.848;8.924;2023-01-15T09:55:24;96493.22;;;17.77;100.00
8697;BME280;4385;48.848;8.924;2023-01-15T09:57:53;96506.66;;;17.80;100.00
8697;BME280;4385;48.848;8.924;2023-01-15T10:00:25;96510.00;;;17.82;100.00
8697;BME280;4385;48.848;8.924;2023-01-15T10:02:58;96523.53;;;17.85;100.00
8697;BME280;4385;48.848;8.924;2023-01-15T10:05:31;96531.94;;;17.87;100.00
8697;BME280;4385;48.848;8.924;2023-01-15T10:08:13;96525.06;;;17.89;100.00
8697;BME280;4385;48.848;8.924;2023-01-15T10:10:44;96522.53;;;17.89;100.00
8697;BME280;4385;48.848;8.924;2023-01-15T10:15:58;96525.84;;;17.91;100.00
8697;BME280;4385;48.848;8.924;2023-01-15T10:18:25;96528.41;;;17.91;100.00
8697;BME280;4385;48.848;8.924;2023-01-15T10:21:19;96540.25;;;17.92;100.00
8697;BME280;4385;48.848;8.924;2023-01-15T10:24:05;96543.69;;;17.91;100.00
8697;BME280;4385;48.848;8.924;2023-01-15T10:26:37;96543.75;;;17.89;100.00
8697;BME280;4385;48.848;8.924;2023-01-15T10:29:17;96572.69;;;17.87;100.00
8697;BME280;4385;48.848;8.924;2023-01-15T10:31:49;96572.75;;;17.85;100.00
8697;BME280;4385;48.848;8.924;2023-01-15T10:37:07;96574.59;;;17.81;100.00
8697;BME280;4385;48.848;8.924;2023-01-15T10:47:31;96573.59;;;17.86;100.00
8697;BME280;4385;48.848;8.924;2023-01-15T10:50:00;96561.69;;;17.86;100.00
8697;BME280;4385;48.848;8.924;2023-01-15T10:52:35;96589.69;;;17.88;100.00
8697;BME280;4385;48.848;8.924;2023-01-15T10:55:18;96613.38;;;17.90;100.00
8697;BME280;4385;48.848;8.924;2023-01-15T11:00:38;96585.03;;;17.99;100.00
8697;BME280;4385;48.848;8.924;2023-01-15T11:03:09;96585.81;;;18.01;100.00
8697;BME280;4385;48.848;8.924;2023-01-15T11:05:39;96592.47;;;18.05;100.00
8697;BME280;4385;48.848;8.924;2023-01-15T11:08:09;96589.84;;;18.07;100.00
8697;BME280;4385;48.848;8.924;2023-01-15T11:10:38;96588.94;;;18.10;100.00
8697;BME280;4385;48.848;8.924;2023-01-15T11:13:20;96597.38;;;18.12;100.00
8697;BME280;4385;48.848;8.924;2023-01-15T11:16:11;96622.00;;;18.13;100.00
8697;BME280;4385;48.848;8.924;2023-01-15T11:19:01;96620.25;;;18.13;100.00
8697;BME280;4385;48.848;8.924;2023-01-15T11:21:46;96622.88;;;18.12;100.00
8697;BME280;4385;48.848;8.924;2023-01-15T11:24:15;96612.69;;;18.10;100.00
8697;BME280;4385;48.848;8.924;2023-01-15T11:26:46;96625.50;;;18.08;100.00
8697;BME280;4385;48.848;8.924;2023-01-15T11:29:39;96614.53;;;18.06;100.00
8697;BME280;4385;48.848;8.924;2023-01-15T11:32:38;96622.25;;;18.05;100.00
8697;BME280;4385;48.848;8.924;2023-01-15T11:35:16;96623.16;;;18.02;100.00
8697;BME280;4385;48.848;8.924;2023-01-15T11:37:42;96623.25;;;17.99;100.00
8697;BME280;4385;48.848;8.924;2023-01-15T11:40:18;96619.84;;;18.00;100.00
8697;BME280;4385;48.848;8.924;2023-01-15T11:42:48;96623.19;;;18.01;100.00
8697;BME280;4385;48.848;8.924;2023-01-15T11:45:32;96623.16;;;18.02;100.00
8697;BME280;4385;48.848;8.924;2023-01-15T11:48:18;96618.78;;;18.06;100.00
8697;BME280;4385;48.848;8.924;2023-01-15T11:53:38;96608.44;;;18.11;100.00
8697;BME280;4385;48.848;8.924;2023-01-15T11:56:09;96599.06;;;18.13;100.00
8697;BME280;4385;48.848;8.924;2023-01-15T11:58:43;96614.25;;;18.16;100.00
8697;BME280;4385;48.848;8.924;2023-01-15T12:01:12;96609.91;;;18.18;100.00
8697;BME280;4385;48.848;8.924;2023-01-15T12:03:40;96601.34;;;18.21;100.00
8697;BME280;4385;48.848;8.924;2023-01-15T12:06:08;96612.25;;;18.24;100.00
8697;BME280;4385;48.848;8.924;2023-01-15T12:08:38;96601.88;;;18.29;100.00
8697;BME280;4385;48.848;8.924;2023-01-15T12:11:13;96612.03;;;18.30;100.00
8697;BME280;4385;48.848;8.924;2023-01-15T12:22:16;96596.88;;;18.26;100.00
8697;BME280;4385;48.848;8.924;2023-01-15T12:27:55;96591.09;;;18.22;100.00
8697;BME280;4385;48.848;8.924;2023-01-15T12:30:37;96581.84;;;18.18;100.00
8697;BME280;4385;48.848;8.924;2023-01-15T12:33:10;96586.97;;;18.18;100.00
8697;BME280;4385;48.848;8.924;2023-01-15T12:35:41;96591.25;;;18.17;100.00
8697;BME280;4385;48.848;8.924;2023-01-15T12:41:01;96578.56;;;18.16;100.00
8697;BME280;4385;48.848;8.924;2023-01-15T12:43:28;96584.47;;;18.16;100.00
8697;BME280;4385;48.848;8.924;2023-01-15T12:46:20;96594.59;;;18.18;100.00
8697;BME280;4385;48.848;8.924;2023-01-15T12:48:56;96598.84;;;18.19;100.00
8697;BME280;4385;48.848;8.924;2023-01-15T12:51:32;96601.34;;;18.21;100.00
8697;BME280;4385;48.848;8.924;2023-01-15T12:54:23;96603.84;;;18.22;100.00
8697;BME280;4385;48.848;8.924;2023-01-15T12:56:57;96613.94;;;18.25;100.00
8697;BME280;4385;48.848;8.924;2023-01-15T12:59:52;96615.56;;;18.26;100.00
8697;BME280;4385;48.848;8.924;2023-01-15T13:02:37;96615.47;;;18.29;100.00
8697;BME280;4385;48.848;8.924;2023-01-15T13:07:42;96632.31;;;18.34;100.00
8697;BME280;4385;48.848;8.924;2023-01-15T13:10:16;96644.22;;;18.35;100.00
8697;BME280;4385;48.848;8.924;2023-01-15T13:12:43;96647.63;;;18.34;100.00
8697;BME280;4385;48.848;8.924;2023-01-15T13:15:14;96641.66;;;18.35;100.00
8697;BME280;4385;48.848;8.924;2023-01-15T13:20:32;96628.84;;;18.36;100.00
8697;BME280;4385;48.848;8.924;2023-01-15T13:28:46;96635.75;;;18.32;100.00
8697;BME280;4385;48.848;8.924;2023-01-15T13:34:22;96646.06;;;18.29;100.00
8697;BME280;4385;48.848;8.924;2023-01-15T13:36:49;96647.84;;;18.27;100.00
8697;BME280;4385;48.848;8.924;2023-01-15T13:39:23;96646.13;;;18.28;100.00
8697;BME280;4385;48.848;8.924;2023-01-15T13:41:52;96656.28;;;18.29;100.00
8697;BME280;4385;48.848;8.924;2023-01-15T13:44:43;96653.63;;;18.32;100.00
8697;BME280;4385;48.848;8.924;2023-01-15T13:47:12;96665.41;;;18.35;100.00
8697;BME280;4385;48.848;8.924;2023-01-15T13:49:47;96655.94;;;18.39;100.00
8697;BME280;4385;48.848;8.924;2023-01-15T13:52:25;96660.94;;;18.42;100.00
8697;BME280;4385;48.848;8.924;2023-01-15T13:54:51;96658.22;;;18.47;100.00
8697;BME280;4385;48.848;8.924;2023-01-15T13:57:33;96669.94;;;18.52;100.00
8697;BME280;4385;48.848;8.924;2023-01-15T13:59:59;96670.59;;;18.57;100.00
8697;BME280;4385;48.848;8.924;2023-01-15T14:02:29;96673.88;;;18.61;100.00
8697;BME280;4385;48.848;8.924;2023-01-15T14:04:55;96674.53;;;18.66;100.00
8697;BME280;4385;48.848;8.924;2023-01-15T14:07:34;96668.50;;;18.69;100.00
8697;BME280;4385;48.848;8.924;2023-01-15T14:15:20;96680.16;;;18.76;100.00
8697;BME280;4385;48.848;8.924;2023-01-15T14:18:19;96680.16;;;18.76;100.00
8697;BME280;4385;48.848;8.924;2023-01-15T14:32:16;96673.72;;;18.66;100.00
8697;BME280;4385;48.848;8.924;2023-01-15T14:34:53;96666.22;;;18.61;100.00
8697;BME280;4385;48.848;8.924;2023-01-15T14:37:25;96665.38;;;18.61;100.00
8697;BME280;4385;48.848;8.924;2023-01-15T14:39:59;96669.66;;;18.60;100.00
8697;BME280;4385;48.848;8.924;2023-01-15T14:42:34;96669.72;;;18.59;100.00